Strona główna
METAR-TAF:

METAR-TAF

Lotnisko :

John H. Batten Airport

Racine, Wisconsin, Stany Zjednoczone

Szerokość geograficzna: 42-45-31N, Długość geograficzna: 087-49-04W, wysokość: 205 m

Aktualna obserwacja pogody

Raport powstał 19 minut temu, godzina 07:53 UTC
Wiatr 4 kt od południowy zachód
Temperatura 22°C
Wilgotność 78%
Ciśnienie 1012 hPa
Widzialność: 16.1 km
Zachmurzenie całkowite na wysokości 9500 ft

METAR: KRAC 280753Z AUTO 22004KT 10SM OVC095 22/18 A2989 RMK AO2 SLP118 T02170183

czas: 03:12 (08:12 UTC)


TAF: brakujący

Obserwacja i prognoza pogody dla ponad 4000 lotnisk (raport METAR i TAF).

Dostępne stacje oznaczono żółtymi i czerwonymi punktami na mapie.

Najedź kursorem aby zobaczyć nazwę stacji.

Kliknij aby zobaczyć obserwacje i prognozy pogody.

Aby zmienić mapę: kliknij na zielony przycisk z czarnym krzyżykiem, aby powiększyć; na zielony przycisk z myślnikiem, aby pomniejszyć; na zielone strzałki, aby przejść do map sąsiednich.


METAR-TAF: